createdAt,value
2022-07-26T00:02:53.833Z,99994.34
2022-07-26T00:08:17.405Z,99999.83
2022-07-26T00:13:41.840Z,99990.14
2022-07-26T00:19:05.330Z,99979.63
2022-07-26T00:24:32.334Z,99982.56
2022-07-26T00:29:54.283Z,99983.63
2022-07-26T00:35:17.548Z,99968.00
2022-07-26T00:40:40.974Z,99977.30
2022-07-26T00:46:04.691Z,99965.94
2022-07-26T00:51:27.982Z,99964.91
2022-07-26T00:56:55.194Z,99988.16
2022-07-26T01:02:18.741Z,99986.48
2022-07-26T01:07:41.782Z,99989.42
2022-07-26T01:13:04.761Z,100003.37
2022-07-26T01:18:28.248Z,99992.39
2022-07-26T01:23:51.461Z,99994.91
2022-07-26T01:29:14.042Z,99979.52
2022-07-26T01:34:36.426Z,99978.03
2022-07-26T01:39:58.637Z,99972.77
2022-07-26T01:45:22.514Z,99969.41
2022-07-26T01:50:44.924Z,99966.89
2022-07-26T01:56:07.750Z,99978.32
2022-07-26T02:01:38.997Z,99968.83
2022-07-26T02:06:53.958Z,99957.47
2022-07-26T02:12:16.405Z,99952.86
2022-07-26T02:17:38.680Z,99947.41
2022-07-26T02:23:00.871Z,99963.92
2022-07-26T02:28:23.683Z,100013.31
2022-07-26T02:33:45.896Z,100004.49
2022-07-26T02:39:08.181Z,100003.67
2022-07-26T02:44:31.731Z,99995.05
2022-07-26T02:49:53.911Z,99990.42
2022-07-26T02:55:16.321Z,99982.22
2022-07-26T03:00:40.607Z,99990.45
2022-07-26T03:06:03.032Z,99969.60
2022-07-26T03:11:25.907Z,99984.59
2022-07-26T03:16:48.603Z,99981.02
2022-07-26T03:22:11.343Z,99988.63
2022-07-26T03:27:33.537Z,99980.01
2022-07-26T03:32:56.082Z,99999.41
2022-07-26T03:38:18.338Z,100021.34
2022-07-26T03:43:40.550Z,100022.39
2022-07-26T03:49:02.927Z,100018.59
2022-07-26T03:54:25.406Z,100024.05
2022-07-26T03:59:47.611Z,100033.94
2022-07-26T04:05:09.861Z,100017.95
2022-07-26T04:10:32.693Z,100013.30
2022-07-26T04:15:54.951Z,100012.25
2022-07-26T04:21:17.825Z,100037.72
2022-07-26T04:26:40.898Z,100050.97
2022-07-26T04:32:03.125Z,100062.37
2022-07-26T04:37:25.341Z,100065.50
2022-07-26T04:42:47.622Z,100089.92
2022-07-26T04:48:11.166Z,100114.31
2022-07-26T04:53:34.092Z,100123.75
2022-07-26T04:58:57.638Z,100127.68
2022-07-26T05:04:19.837Z,100093.70
2022-07-26T05:09:43.402Z,100147.70
2022-07-26T05:15:05.714Z,100184.44
2022-07-26T05:20:32.482Z,100186.09
2022-07-26T05:25:55.821Z,100208.19
2022-07-26T05:31:18.208Z,100195.63
2022-07-26T05:36:41.353Z,100185.74
2022-07-26T05:42:03.556Z,100177.75
2022-07-26T05:47:25.753Z,100179.02
2022-07-26T05:52:48.025Z,100206.00
2022-07-26T05:58:10.708Z,100201.89
2022-07-26T06:03:32.959Z,100202.98
2022-07-26T06:08:56.182Z,100200.20
2022-07-26T06:14:18.767Z,100211.47
2022-07-26T06:19:47.107Z,100208.89
2022-07-26T06:25:06.228Z,100215.11
2022-07-26T06:30:28.809Z,100219.04
2022-07-26T06:35:51.164Z,100224.30
2022-07-26T06:41:13.735Z,100227.44
2022-07-26T06:46:36.600Z,100232.20
2022-07-26T06:51:58.803Z,100250.81
2022-07-26T06:57:21.974Z,100236.58
2022-07-26T07:02:44.553Z,100231.20
2022-07-26T07:08:07.388Z,100265.33
2022-07-26T07:13:29.791Z,100251.08
2022-07-26T07:18:52.445Z,100257.19
2022-07-26T07:24:14.859Z,100265.36
2022-07-26T07:29:37.126Z,100262.42
2022-07-26T07:35:00.488Z,100288.77
2022-07-26T07:40:26.773Z,100313.73
2022-07-26T07:45:49.104Z,100326.81
2022-07-26T07:51:12.575Z,100333.70
2022-07-26T07:56:35.152Z,100326.55
2022-07-26T08:01:57.409Z,100329.98
2022-07-26T08:07:20.093Z,100318.70
2022-07-26T08:12:42.353Z,100313.54
2022-07-26T08:18:05.020Z,100319.06
2022-07-26T08:23:30.447Z,100323.48
2022-07-26T08:29:09.422Z,100321.44
2022-07-26T08:34:18.445Z,100322.73
2022-07-26T08:39:41.402Z,100319.77
2022-07-26T08:45:07.874Z,100331.41
2022-07-26T08:50:30.254Z,100335.06
2022-07-26T08:56:06.851Z,100339.73
2022-07-26T09:01:26.753Z,100345.34
2022-07-26T09:06:50.709Z,100356.81
2022-07-26T09:12:27.516Z,100349.99
2022-07-26T09:18:05.426Z,100373.48
2022-07-26T09:23:29.352Z,100366.39
2022-07-26T09:28:51.546Z,100367.92
2022-07-26T09:34:14.683Z,100361.48
2022-07-26T09:39:37.469Z,100372.55
2022-07-26T09:45:03.496Z,100369.95
2022-07-26T09:50:38.970Z,100371.67
2022-07-26T09:56:12.500Z,100366.37
2022-07-26T10:01:35.262Z,100381.53
2022-07-26T10:07:01.741Z,100387.69
2022-07-26T10:12:30.449Z,100387.73
2022-07-26T10:17:58.169Z,100395.16
2022-07-26T10:23:39.094Z,100373.09
2022-07-26T10:29:01.868Z,100384.79
2022-07-26T10:34:39.580Z,100389.89
2022-07-26T10:40:03.604Z,100395.39
2022-07-26T10:45:37.710Z,100400.89
2022-07-26T10:51:06.248Z,100402.78
2022-07-26T10:56:29.903Z,100401.30
2022-07-26T11:01:55.827Z,100412.07
2022-07-26T11:07:19.574Z,100403.01
2022-07-26T11:12:42.239Z,100408.47
2022-07-26T11:18:14.330Z,100392.11
2022-07-26T11:23:46.388Z,100406.27
2022-07-26T11:29:22.619Z,100396.53
2022-07-26T11:34:46.057Z,100399.92
2022-07-26T11:40:08.323Z,100408.17
2022-07-26T11:45:31.257Z,100408.59
2022-07-26T11:50:53.976Z,100411.56
2022-07-26T11:56:29.252Z,100390.66
2022-07-26T12:01:52.663Z,100399.92
2022-07-26T12:07:20.221Z,100410.91
2022-07-26T12:12:44.033Z,100420.88
2022-07-26T12:18:20.958Z,100400.00
2022-07-26T12:23:55.042Z,100390.71
2022-07-26T12:29:26.709Z,100397.48
2022-07-26T12:34:51.041Z,100388.17
2022-07-26T12:40:23.313Z,100393.67
2022-07-26T12:45:47.708Z,100392.87
2022-07-26T12:51:10.557Z,100395.80
2022-07-26T12:56:32.758Z,100398.73
2022-07-26T13:01:55.063Z,100388.94
2022-07-26T13:07:18.109Z,100381.41
2022-07-26T13:12:41.062Z,100388.22
2022-07-26T13:18:03.369Z,100382.00
2022-07-26T13:23:26.900Z,100396.98
2022-07-26T13:28:50.163Z,100384.98
2022-07-26T13:34:13.999Z,100381.45
2022-07-26T13:39:36.640Z,100389.27
2022-07-26T13:44:58.908Z,100381.08
2022-07-26T13:50:21.979Z,100394.19
2022-07-26T13:55:44.704Z,100375.20
2022-07-26T14:01:08.039Z,100388.73
2022-07-26T14:06:30.818Z,100380.14
2022-07-26T14:11:54.703Z,100385.16
2022-07-26T14:17:17.352Z,100380.80
2022-07-26T14:22:40.070Z,100379.36
2022-07-26T14:28:02.963Z,100382.02
2022-07-26T14:33:25.685Z,100362.52
2022-07-26T14:38:50.304Z,100372.91
2022-07-26T14:44:12.924Z,100376.27
2022-07-26T14:49:35.604Z,100385.99
2022-07-26T14:54:57.877Z,100376.86
2022-07-26T15:00:25.372Z,100377.24
2022-07-26T15:05:48.656Z,100378.74
2022-07-26T15:11:10.864Z,100378.97
2022-07-26T15:16:33.079Z,100375.33
2022-07-26T15:21:55.870Z,100373.03
2022-07-26T15:27:19.380Z,100366.65
2022-07-26T15:32:42.911Z,100370.76
2022-07-26T15:38:05.137Z,100372.54
2022-07-26T15:43:44.381Z,100374.98
2022-07-26T15:48:58.523Z,100370.79
2022-07-26T15:54:22.805Z,100373.84
2022-07-26T15:59:45.027Z,100368.19
2022-07-26T16:05:07.283Z,100366.15
2022-07-26T16:10:30.964Z,100364.77
2022-07-26T16:15:53.227Z,100374.42
2022-07-26T16:21:15.425Z,100375.81
2022-07-26T16:26:38.038Z,100380.58
2022-07-26T16:32:00.383Z,100376.55
2022-07-26T16:37:23.252Z,100371.39
2022-07-26T16:42:45.598Z,100388.30
2022-07-26T16:48:07.823Z,100381.17
2022-07-26T16:53:30.039Z,100413.28
2022-07-26T16:58:52.656Z,100400.10
2022-07-26T17:04:17.071Z,100391.66
2022-07-26T17:09:39.820Z,100399.54
2022-07-26T17:15:02.875Z,100416.84
2022-07-26T17:20:25.847Z,100421.66
2022-07-26T17:25:49.262Z,100424.56
2022-07-26T17:31:11.493Z,100420.91
2022-07-26T17:36:40.005Z,100443.89
2022-07-26T17:42:04.546Z,100454.78
2022-07-26T17:47:28.956Z,100488.30
2022-07-26T17:52:50.817Z,100472.22
2022-07-26T17:58:13.095Z,100481.34
2022-07-26T18:03:35.267Z,100479.45
2022-07-26T18:08:57.545Z,100487.65
2022-07-26T18:14:20.468Z,100489.77
2022-07-26T18:19:42.954Z,100495.08
2022-07-26T18:25:05.155Z,100509.34
2022-07-26T18:30:29.180Z,100511.95
2022-07-26T18:35:51.785Z,100519.75
2022-07-26T18:41:14.827Z,100521.64
2022-07-26T18:46:37.428Z,100534.46
2022-07-26T18:52:08.406Z,100520.44
2022-07-26T18:57:25.324Z,100520.52
2022-07-26T19:02:48.666Z,100540.38
2022-07-26T19:08:11.025Z,100540.47
2022-07-26T19:13:33.255Z,100550.42
2022-07-26T19:18:57.452Z,100557.57
2022-07-26T19:24:19.858Z,100566.02
2022-07-26T19:29:42.733Z,100561.28
2022-07-26T19:35:05.013Z,100558.08
2022-07-26T19:40:27.581Z,100567.84
2022-07-26T19:45:49.897Z,100567.55
2022-07-26T19:51:12.128Z,100579.00
2022-07-26T19:56:34.470Z,100584.33
2022-07-26T20:01:58.322Z,100593.91
2022-07-26T20:07:21.498Z,100589.51
2022-07-26T20:12:43.757Z,100604.22
2022-07-26T20:18:07.812Z,100614.14
2022-07-26T20:23:30.517Z,100624.23
2022-07-26T20:28:53.492Z,100630.09
2022-07-26T20:34:15.733Z,100624.00
2022-07-26T20:39:38.619Z,100641.08
2022-07-26T20:45:01.440Z,100626.96
2022-07-26T20:50:24.361Z,100651.86
2022-07-26T20:55:47.322Z,100646.60
2022-07-26T21:01:11.090Z,100648.63
2022-07-26T21:06:33.676Z,100639.31
2022-07-26T21:11:56.892Z,100635.07
2022-07-26T21:17:19.283Z,100651.23
2022-07-26T21:22:41.641Z,100656.49
2022-07-26T21:28:04.478Z,100667.72
2022-07-26T21:33:26.934Z,100676.55
2022-07-26T21:38:49.571Z,100685.41
2022-07-26T21:44:11.954Z,100687.77
2022-07-26T21:49:34.912Z,100689.30
2022-07-26T21:54:57.179Z,100687.74
2022-07-26T22:00:21.107Z,100701.86
2022-07-26T22:05:43.972Z,100695.06
2022-07-26T22:11:06.564Z,100713.39
2022-07-26T22:16:30.217Z,100711.32
2022-07-26T22:21:52.877Z,100719.28
2022-07-26T22:27:15.298Z,100724.48
2022-07-26T22:32:38.559Z,100729.17
2022-07-26T22:38:01.629Z,100726.20
2022-07-26T22:43:25.002Z,100725.13
2022-07-26T22:48:48.173Z,100723.36
2022-07-26T22:54:11.251Z,100729.68
2022-07-26T22:59:33.461Z,100728.05
2022-07-26T23:04:55.678Z,100730.36
2022-07-26T23:10:21.398Z,100728.98
2022-07-26T23:15:46.215Z,100731.47
2022-07-26T23:21:07.855Z,100725.20
2022-07-26T23:26:30.076Z,100719.09
2022-07-26T23:31:52.934Z,100718.37
2022-07-26T23:37:15.302Z,100708.52
2022-07-26T23:42:37.514Z,100720.13
2022-07-26T23:48:02.572Z,100726.92
2022-07-26T23:53:26.932Z,100718.14
2022-07-26T23:58:50.528Z,100721.16
